Accueil
METAR-TAF:

METAR-TAF

Aéroports :

Aéroport international de Bujumbura

Bujumbura, Burundi

latitude: 03-19S, longitude: 029-19E, altitude: 782 m

METAR: absent

Heure: 23:24 (21:24 UTC)

Prévision

Le bulletin a été fait il y a 4 heures et 24 minutes, à 17:00 UTC
Prévision valable du 19 à 18 UTC au 20 à 24 UTC
Vent kt de nord avec des rafales jusqu'à 25 kt
Visibilité 10 km ou plus
pas de nuages en-dessous de 1500 mètres et pas de cumulonimbus.

TAF: HBBA 191700Z 1918/2024 00000KT CAVOK BECMG2002/2004 36002KT 5000HZ FEW025 BKN100 BECMG2007/2009 18015G25KT 7000 FEW035 BECMG2015/2017 18008KT CAVOK BECMG2020/2022 00000KT CAVOK

Observations et prévisions météorologiques de plus de 4000 aéroports (messages METAR et TAF).

Les stations disponibles sont représentées par des disques jaunes et rouges sur la carte.

Passer la souris dessus pour voir le nom de la station.

Cliquer dessus pour voir les observations et prévisions météorologiques.

Pour changer de carte: cliquez sur les boutons verts avec une croix noire pour zoomer, sur le bouton vert avec un tiret pour effectuer un zoom arrière, ou sur les flèches vertes pour les cartes adjacentes.


METAR-TAF: